Time;durP1;ratioP1;P1;durP2;ratioP2;P2;SDS_P1;SDS_P2;PMS_P1;PMS_P2;Temp;Humidity;BMP_temperature;BMP_pressure;BME280_temperature;BME280_humidity;BME280_pressure;Samples;Min_cycle;Max_cycle;Signal;HPM_P1;HPM_P2
2023/10/14 00:00:52;;;;;;;1.88;1.35;;;;;;;;;;5069124;28;20032;-57
2023/10/14 00:03:32;;;;;;;1.57;1.47;;;;;;;;;;5069956;28;20017;-57
2023/10/14 00:06:00;;;;;;;4.53;2.17;;;;;;;;;;5068893;28;20453;-57
2023/10/14 00:08:27;;;;;;;1.38;1.25;;;;;;;;;;5070577;28;20425;-58
2023/10/14 00:10:53;;;;;;;2.40;1.23;;;;;;;;;;5068670;28;20074;-58
2023/10/14 00:13:18;;;;;;;4.72;1.40;;;;;;;;;;5059159;28;20021;-58
2023/10/14 00:15:45;;;;;;;2.77;1.83;;;;;;;;;;5057234;28;20093;-60
2023/10/14 00:18:10;;;;;;;5.35;2.92;;;;;;;;;;5070389;28;20419;-57
2023/10/14 00:20:36;;;;;;;2.08;1.85;;;;;;;;;;5068687;28;20033;-57
2023/10/14 00:23:04;;;;;;;3.55;1.70;;;;;;;;;;5070352;28;20028;-58
2023/10/14 00:25:33;;;;;;;3.63;1.83;;;;;;;;;;5068404;28;20048;-57
2023/10/14 00:27:59;;;;;;;1.45;1.35;;;;;;;;;;5069903;28;20017;-57
2023/10/14 00:30:28;;;;;;;1.83;1.73;;;;;;;;;;5064419;28;20037;-58
2023/10/14 00:32:53;;;;;;;4.32;1.58;;;;;;;;;;5068577;28;20099;-57
2023/10/14 00:35:19;;;;;;;5.67;1.57;;;;;;;;;;5073540;28;20556;-58
2023/10/14 00:37:44;;;;;;;7.40;2.47;;;;;;;;;;5072441;28;20458;-58
2023/10/14 00:40:12;;;;;;;2.95;1.50;;;;;;;;;;5067983;28;20625;-58
2023/10/14 00:42:37;;;;;;;5.78;1.88;;;;;;;;;;5070250;28;20039;-58
2023/10/14 00:45:12;;;;;;;1.85;1.35;;;;;;;;;;5073776;28;20021;-58
2023/10/14 00:47:40;;;;;;;3.75;1.40;;;;;;;;;;5072382;28;20033;-58
2023/10/14 00:50:22;;;;;;;4.75;3.30;;;;;;;;;;5073263;28;20070;-58
2023/10/14 00:52:54;;;;;;;4.00;2.13;;;;;;;;;;5072093;28;20062;-58
2023/10/14 00:55:24;;;;;;;2.28;2.08;;;;;;;;;;5059567;28;20028;-58
2023/10/14 00:57:54;;;;;;;2.92;1.42;;;;;;;;;;5071692;28;20127;-58
2023/10/14 01:00:22;;;;;;;2.28;1.70;;;;;;;;;;5073842;28;20052;-59
2023/10/14 01:02:48;;;;;;;2.22;1.80;;;;;;;;;;5071481;28;20120;-58
2023/10/14 01:05:19;;;;;;;2.15;1.95;;;;;;;;;;5073822;28;20096;-59
2023/10/14 01:07:45;;;;;;;2.80;1.92;;;;;;;;;;5071535;28;20098;-59
2023/10/14 01:10:12;;;;;;;2.10;1.60;;;;;;;;;;5073084;28;20024;-58
2023/10/14 01:12:40;;;;;;;4.00;2.05;;;;;;;;;;5072020;28;20029;-59
2023/10/14 01:15:30;;;;;;;2.33;1.70;;;;;;;;;;5073621;28;20099;-59
2023/10/14 01:17:53;;;;;;;4.57;2.97;;;;;;;;;;5050929;28;20052;-59
2023/10/14 01:22:50;;;;;;;2.13;2.03;;;;;;;;;;5051767;28;20048;-59
2023/10/14 01:25:15;;;;;;;2.30;2.10;;;;;;;;;;5052821;28;20474;-59
2023/10/14 01:27:44;;;;;;;4.75;1.88;;;;;;;;;;5062614;28;20088;-59
2023/10/14 01:30:52;;;;;;;3.03;2.20;;;;;;;;;;5055426;28;20055;-59
2023/10/14 01:33:12;;;;;;;4.60;1.90;;;;;;;;;;5069171;28;20039;-59
2023/10/14 01:35:45;;;;;;;2.75;2.30;;;;;;;;;;5071065;28;20412;-59
2023/10/14 01:38:10;;;;;;;4.18;2.25;;;;;;;;;;5073338;28;20024;-59
2023/10/14 01:40:37;;;;;;;2.78;1.75;;;;;;;;;;5070813;28;20033;-58
2023/10/14 01:43:06;;;;;;;4.50;1.90;;;;;;;;;;5072849;28;20020;-58
2023/10/14 01:45:39;;;;;;;11.35;3.60;;;;;;;;;;5070874;28;20037;-58
2023/10/14 01:50:46;;;;;;;4.38;2.50;;;;;;;;;;5071305;28;20033;-58
2023/10/14 01:53:18;;;;;;;3.00;2.60;;;;;;;;;;5072444;28;20471;-58
2023/10/14 01:55:45;;;;;;;4.65;2.13;;;;;;;;;;5062806;28;20051;-58
2023/10/14 02:00:52;;;;;;;3.35;2.45;;;;;;;;;;5060056;28;20028;-58
2023/10/14 02:03:19;;;;;;;3.80;2.00;;;;;;;;;;5071987;28;20044;-58
2023/10/14 02:05:44;;;;;;;9.60;2.65;;;;;;;;;;5070869;28;20079;-58
2023/10/14 02:08:16;;;;;;;6.50;2.30;;;;;;;;;;5072456;28;20402;-59
2023/10/14 02:10:51;;;;;;;9.68;2.90;;;;;;;;;;5070549;28;20049;-72
2023/10/14 02:13:17;;;;;;;14.63;4.47;;;;;;;;;;5072172;28;20025;-58
2023/10/14 02:15:50;;;;;;;7.88;3.10;;;;;;;;;;5070902;28;20036;-58
2023/10/14 02:18:22;;;;;;;6.97;3.72;;;;;;;;;;5071845;28;20016;-57
2023/10/14 02:20:57;;;;;;;10.35;2.67;;;;;;;;;;5070645;28;20120;-58
2023/10/14 02:23:23;;;;;;;12.70;2.30;;;;;;;;;;5071949;28;20024;-58
2023/10/14 02:25:55;;;;;;;10.10;4.03;;;;;;;;;;5069513;28;20613;-58
2023/10/14 02:28:21;;;;;;;6.60;2.15;;;;;;;;;;5059163;28;20432;-58
2023/10/14 02:30:51;;;;;;;6.05;2.65;;;;;;;;;;5059518;28;20032;-59
2023/10/14 02:33:16;;;;;;;10.52;2.70;;;;;;;;;;5072046;28;20047;-59
2023/10/14 02:35:41;;;;;;;9.37;3.60;;;;;;;;;;5069680;28;20495;-58
2023/10/14 02:38:08;;;;;;;15.37;3.80;;;;;;;;;;5071445;28;20016;-58
2023/10/14 02:40:36;;;;;;;10.23;3.13;;;;;;;;;;5068343;28;20056;-58
2023/10/14 02:43:02;;;;;;;10.15;2.45;;;;;;;;;;5071712;28;20105;-58
2023/10/14 02:45:33;;;;;;;14.33;4.30;;;;;;;;;;5070012;28;20460;-58
2023/10/14 02:48:01;;;;;;;24.92;5.63;;;;;;;;;;5071329;28;20024;-59
2023/10/14 02:50:26;;;;;;;;;;;;;;;;;;5070691;28;20060;-58
2023/10/14 02:53:00;;;;;;;10.00;3.95;;;;;;;;;;5054623;28;19955;-58
2023/10/14 02:55:26;;;;;;;8.30;2.30;;;;;;;;;;5063095;28;20029;-58
2023/10/14 02:57:51;;;;;;;5.70;4.05;;;;;;;;;;5058083;28;20494;-58
2023/10/14 03:00:29;;;;;;;9.55;3.65;;;;;;;;;;5054720;28;20078;-59
2023/10/14 03:02:55;;;;;;;18.55;3.55;;;;;;;;;;5070967;28;20506;-58
2023/10/14 03:05:35;;;;;;;15.55;3.30;;;;;;;;;;5069869;28;20116;-59
2023/10/14 03:08:10;;;;;;;10.43;3.13;;;;;;;;;;5071199;28;20090;-58
2023/10/14 03:10:39;;;;;;;13.32;3.03;;;;;;;;;;5069626;28;20032;-58
2023/10/14 03:13:05;;;;;;;13.95;4.22;;;;;;;;;;5070911;28;20091;-59
2023/10/14 03:15:38;;;;;;;13.95;3.85;;;;;;;;;;5069574;28;20491;-59
2023/10/14 03:18:04;;;;;;;16.48;5.60;;;;;;;;;;5070949;28;20078;-58
2023/10/14 03:23:25;;;;;;;17.00;4.18;;;;;;;;;;5057431;28;20095;-58
2023/10/14 03:25:50;;;;;;;21.63;5.68;;;;;;;;;;5058031;28;20044;-58
2023/10/14 03:28:24;;;;;;;13.48;2.58;;;;;;;;;;5071177;28;20107;-58
2023/10/14 03:30:56;;;;;;;13.10;3.05;;;;;;;;;;5068933;28;20044;-58
2023/10/14 03:33:23;;;;;;;10.45;3.63;;;;;;;;;;5071203;28;20028;-58
2023/10/14 03:36:05;;;;;;;12.60;5.15;;;;;;;;;;5068368;28;20064;-58
2023/10/14 03:41:10;;;;;;;12.45;4.38;;;;;;;;;;5069185;28;20039;-58
2023/10/14 03:44:09;;;;;;;14.35;4.70;;;;;;;;;;5071129;28;20108;-59
2023/10/14 03:46:33;;;;;;;12.35;4.20;;;;;;;;;;5067723;28;20407;-58
2023/10/14 03:48:59;;;;;;;11.82;4.43;;;;;;;;;;5069484;28;20471;-58
2023/10/14 03:51:24;;;;;;;14.15;3.58;;;;;;;;;;5068523;28;20043;-58
2023/10/14 03:53:52;;;;;;;11.18;3.90;;;;;;;;;;5069213;28;20107;-58
2023/10/14 03:56:17;;;;;;;11.13;2.85;;;;;;;;;;5069047;28;20466;-58
2023/10/14 03:58:44;;;;;;;24.05;6.13;;;;;;;;;;5070704;28;20116;-59
2023/10/14 04:01:12;;;;;;;8.88;4.38;;;;;;;;;;5068345;28;20120;-58
2023/10/14 04:03:40;;;;;;;14.15;4.10;;;;;;;;;;5068844;28;20031;-58
2023/10/14 04:06:09;;;;;;;10.77;3.35;;;;;;;;;;5069025;28;20047;-57
2023/10/14 04:08:39;;;;;;;;;;;;;;;;;;5071499;28;20016;-57
2023/10/14 04:11:11;;;;;;;14.63;3.42;;;;;;;;;;5073019;28;19999;-57
2023/10/14 04:13:40;;;;;;;18.10;4.15;;;;;;;;;;5066577;28;20025;-69
2023/10/14 04:16:07;;;;;;;9.48;3.17;;;;;;;;;;5064052;28;20043;-57
2023/10/14 04:18:32;;;;;;;18.70;4.35;;;;;;;;;;5074636;28;20017;-57
2023/10/14 04:21:25;;;;;;;8.95;2.92;;;;;;;;;;5072395;28;20032;-57
2023/10/14 04:24:07;;;;;;;9.68;3.58;;;;;;;;;;5053737;28;20025;-57
2023/10/14 04:26:34;;;;;;;11.40;4.13;;;;;;;;;;5051981;28;20403;-57
2023/10/14 04:29:01;;;;;;;21.73;5.55;;;;;;;;;;5074005;28;20116;-57
2023/10/14 04:31:41;;;;;;;21.23;5.00;;;;;;;;;;5072519;28;20475;-57
2023/10/14 04:34:08;;;;;;;11.88;3.28;;;;;;;;;;5073455;28;20112;-57
2023/10/14 04:36:37;;;;;;;7.05;3.10;;;;;;;;;;5072625;28;20040;-58
2023/10/14 04:39:07;;;;;;;;;;;;;;;;;;5069732;28;20493;-57
2023/10/14 04:41:32;;;;;;;12.38;4.80;;;;;;;;;;5072686;28;19908;-57
2023/10/14 04:46:32;;;;;;;9.37;3.27;;;;;;;;;;5065535;28;20115;-57
2023/10/14 04:49:06;;;;;;;17.58;3.80;;;;;;;;;;5072072;28;20060;-57
2023/10/14 04:51:36;;;;;;;21.00;4.60;;;;;;;;;;5070779;28;20041;-57
2023/10/14 04:54:01;;;;;;;12.70;3.58;;;;;;;;;;5072730;28;20119;-57
2023/10/14 04:56:33;;;;;;;13.37;4.33;;;;;;;;;;5071825;28;20033;-65
2023/10/14 04:58:59;;;;;;;10.43;4.47;;;;;;;;;;5071775;28;20524;-68
2023/10/14 05:01:25;;;;;;;13.43;3.33;;;;;;;;;;5071646;28;20439;-57
2023/10/14 05:03:55;;;;;;;14.85;4.57;;;;;;;;;;5072378;28;20031;-57
2023/10/14 05:06:21;;;;;;;17.05;4.00;;;;;;;;;;5070343;28;20036;-57
2023/10/14 05:08:51;;;;;;;15.80;5.03;;;;;;;;;;5072719;28;20025;-58
2023/10/14 05:11:19;;;;;;;15.63;3.08;;;;;;;;;;5071346;28;20037;-57
2023/10/14 05:14:07;;;;;;;18.95;4.53;;;;;;;;;;5071602;28;20028;-60
2023/10/14 05:16:56;;;;;;;16.90;3.13;;;;;;;;;;5057212;28;20040;-57
2023/10/14 05:19:35;;;;;;;15.07;5.97;;;;;;;;;;5072509;28;20047;-57
2023/10/14 05:22:05;;;;;;;11.63;3.50;;;;;;;;;;5068859;28;20115;-57
2023/10/14 05:24:31;;;;;;;15.90;5.15;;;;;;;;;;5072560;28;20067;-57
2023/10/14 05:26:59;;;;;;;15.73;3.95;;;;;;;;;;5070279;28;20040;-57
2023/10/14 05:29:26;;;;;;;16.42;4.70;;;;;;;;;;5070961;28;20020;-57
2023/10/14 05:31:52;;;;;;;15.13;4.28;;;;;;;;;;5070533;28;20449;-57
2023/10/14 05:34:20;;;;;;;14.55;5.22;;;;;;;;;;5071750;28;20119;-58
2023/10/14 05:36:48;;;;;;;13.50;4.30;;;;;;;;;;5049565;28;20076;-57
2023/10/14 05:39:13;;;;;;;18.85;5.20;;;;;;;;;;5072064;28;20024;-58
2023/10/14 05:41:38;;;;;;;14.45;6.13;;;;;;;;;;5070115;28;20053;-57
2023/10/14 05:44:04;;;;;;;26.83;6.22;;;;;;;;;;5070132;28;20395;-58
2023/10/14 05:46:29;;;;;;;19.27;4.22;;;;;;;;;;5069621;28;20033;-57
2023/10/14 05:48:54;;;;;;;14.77;3.75;;;;;;;;;;5071019;28;20035;-57
2023/10/14 05:51:20;;;;;;;15.52;3.47;;;;;;;;;;5066968;28;20557;-57
2023/10/14 05:53:46;;;;;;;14.90;4.63;;;;;;;;;;5071734;28;20435;-57
2023/10/14 05:56:14;;;;;;;11.55;3.65;;;;;;;;;;5070434;28;20097;-56
2023/10/14 05:58:43;;;;;;;13.40;4.18;;;;;;;;;;5071923;28;20086;-57
2023/10/14 06:01:13;;;;;;;12.52;4.03;;;;;;;;;;5070663;28;20033;-56
2023/10/14 06:03:38;;;;;;;16.55;3.97;;;;;;;;;;5072219;28;20483;-56
2023/10/14 06:06:09;;;;;;;16.95;4.25;;;;;;;;;;5070177;28;20043;-57
2023/10/14 06:08:35;;;;;;;14.10;5.10;;;;;;;;;;5072482;28;20031;-56
2023/10/14 06:11:00;;;;;;;17.60;5.20;;;;;;;;;;5069633;28;20403;-56
2023/10/14 06:13:27;;;;;;;11.83;4.13;;;;;;;;;;5071373;28;20039;-56
2023/10/14 06:15:52;;;;;;;14.68;3.60;;;;;;;;;;5069975;28;20502;-56
2023/10/14 06:18:18;;;;;;;9.07;3.43;;;;;;;;;;5071995;28;20445;-56
2023/10/14 06:20:45;;;;;;;16.60;4.00;;;;;;;;;;5070224;28;20056;-57
2023/10/14 06:23:11;;;;;;;16.17;4.22;;;;;;;;;;5071738;28;20012;-56
2023/10/14 06:25:38;;;;;;;19.05;4.80;;;;;;;;;;5070405;28;20033;-56
2023/10/14 06:28:04;;;;;;;13.63;5.55;;;;;;;;;;5071279;28;20009;-56
2023/10/14 06:30:30;;;;;;;12.18;3.05;;;;;;;;;;5070106;28;20125;-56
2023/10/14 06:32:58;;;;;;;22.58;5.03;;;;;;;;;;5071195;28;20066;-56
2023/10/14 06:35:26;;;;;;;20.27;5.38;;;;;;;;;;5070020;28;20360;-56
2023/10/14 06:37:53;;;;;;;11.75;2.92;;;;;;;;;;5070753;28;20024;-56
2023/10/14 06:40:19;;;;;;;10.60;3.60;;;;;;;;;;5069890;28;20515;-56
2023/10/14 06:42:48;;;;;;;10.75;2.85;;;;;;;;;;5071387;28;20020;-57
2023/10/14 06:45:13;;;;;;;23.83;5.45;;;;;;;;;;5069304;28;20445;-56
2023/10/14 06:47:45;;;;;;;16.35;5.18;;;;;;;;;;5071506;28;20021;-56
2023/10/14 06:50:12;;;;;;;12.30;4.68;;;;;;;;;;5070226;28;20059;-56
2023/10/14 06:52:37;;;;;;;18.33;4.15;;;;;;;;;;5071342;28;20532;-56
2023/10/14 06:55:02;;;;;;;22.23;6.93;;;;;;;;;;5069453;28;20037;-56
2023/10/14 06:57:28;;;;;;;17.67;4.32;;;;;;;;;;5070811;28;20029;-56
2023/10/14 06:59:54;;;;;;;15.90;4.03;;;;;;;;;;5069101;28;20052;-56
2023/10/14 07:02:21;;;;;;;11.55;4.95;;;;;;;;;;5071324;28;20019;-56
2023/10/14 07:04:46;;;;;;;9.38;3.20;;;;;;;;;;5069322;28;20017;-56
2023/10/14 07:07:11;;;;;;;14.40;3.77;;;;;;;;;;5070381;28;20023;-56
2023/10/14 07:09:37;;;;;;;18.52;6.60;;;;;;;;;;5069535;28;20066;-56
2023/10/14 07:12:13;;;;;;;14.43;4.65;;;;;;;;;;5067486;28;20491;-56
2023/10/14 07:14:38;;;;;;;6.28;4.00;;;;;;;;;;5069124;28;20498;-56
2023/10/14 07:17:07;;;;;;;16.20;5.18;;;;;;;;;;5067845;28;20931;-56
2023/10/14 07:19:32;;;;;;;16.55;4.45;;;;;;;;;;5068460;28;20020;-57
2023/10/14 07:21:57;;;;;;;19.88;6.10;;;;;;;;;;5067102;28;20436;-57
2023/10/14 07:24:22;;;;;;;14.38;5.55;;;;;;;;;;5070510;28;20108;-56
2023/10/14 07:26:47;;;;;;;9.73;3.00;;;;;;;;;;5068631;28;20044;-56
2023/10/14 07:29:13;;;;;;;12.18;4.40;;;;;;;;;;5070127;28;20456;-57
2023/10/14 07:31:38;;;;;;;14.90;4.83;;;;;;;;;;5068963;28;20039;-57
2023/10/14 07:34:03;;;;;;;21.43;3.87;;;;;;;;;;5069450;28;20048;-57
2023/10/14 07:36:29;;;;;;;14.73;4.35;;;;;;;;;;5068293;28;20028;-57
2023/10/14 07:39:02;;;;;;;12.07;4.57;;;;;;;;;;5070574;28;20019;-57
2023/10/14 07:41:27;;;;;;;14.43;4.95;;;;;;;;;;5068957;28;20041;-57
2023/10/14 07:43:52;;;;;;;17.77;6.32;;;;;;;;;;5069309;28;20287;-57
2023/10/14 07:46:17;;;;;;;31.10;6.27;;;;;;;;;;5068849;28;20406;-57
2023/10/14 07:48:43;;;;;;;22.63;5.63;;;;;;;;;;5070319;28;20131;-57
2023/10/14 07:51:08;;;;;;;21.23;4.70;;;;;;;;;;5068301;28;20036;-57
2023/10/14 07:53:33;;;;;;;17.17;4.53;;;;;;;;;;5069886;28;20469;-57
2023/10/14 07:55:58;;;;;;;20.33;4.18;;;;;;;;;;5068198;28;20532;-56
2023/10/14 07:58:24;;;;;;;15.38;4.65;;;;;;;;;;5070018;28;20059;-56
2023/10/14 08:00:50;;;;;;;28.42;5.85;;;;;;;;;;5068718;28;20040;-56
2023/10/14 08:03:20;;;;;;;20.27;6.07;;;;;;;;;;5070201;28;20495;-56
2023/10/14 08:05:48;;;;;;;12.27;3.78;;;;;;;;;;5067951;28;20113;-56
2023/10/14 08:08:14;;;;;;;10.88;3.05;;;;;;;;;;5068980;28;20012;-56
2023/10/14 08:10:43;;;;;;;22.20;6.60;;;;;;;;;;5068927;28;20085;-56
2023/10/14 08:13:11;;;;;;;10.95;3.80;;;;;;;;;;5069430;28;20021;-56
2023/10/14 08:15:37;;;;;;;13.50;4.03;;;;;;;;;;5068262;28;20102;-57
2023/10/14 08:18:06;;;;;;;16.08;6.22;;;;;;;;;;5069980;28;20013;-57
2023/10/14 08:20:31;;;;;;;15.18;3.75;;;;;;;;;;5068555;28;20036;-58
2023/10/14 08:22:57;;;;;;;18.08;4.70;;;;;;;;;;5069738;28;20078;-57
2023/10/14 08:25:25;;;;;;;9.23;3.63;;;;;;;;;;5068476;28;20060;-57
2023/10/14 08:27:50;;;;;;;21.13;4.97;;;;;;;;;;5069806;28;20039;-57
2023/10/14 08:30:16;;;;;;;10.50;2.92;;;;;;;;;;5064840;28;20029;-57
2023/10/14 08:32:42;;;;;;;16.65;4.63;;;;;;;;;;5048692;28;20520;-58
2023/10/14 08:35:17;;;;;;;19.52;3.17;;;;;;;;;;5046009;28;20049;-56
2023/10/14 08:37:43;;;;;;;15.43;4.25;;;;;;;;;;5048518;28;20376;-57
2023/10/14 08:40:09;;;;;;;13.70;3.40;;;;;;;;;;5056357;28;20028;-57
2023/10/14 08:42:35;;;;;;;5.28;2.42;;;;;;;;;;5066512;28;20013;-58
2023/10/14 08:45:04;;;;;;;9.60;3.10;;;;;;;;;;5066049;28;20017;-57
2023/10/14 08:47:29;;;;;;;11.95;2.83;;;;;;;;;;5068588;28;20505;-57
2023/10/14 08:49:54;;;;;;;18.27;5.82;;;;;;;;;;5066627;28;20154;-57
2023/10/14 08:52:21;;;;;;;15.07;4.77;;;;;;;;;;5069908;28;20355;-57
2023/10/14 08:54:48;;;;;;;10.27;3.78;;;;;;;;;;5068894;28;20985;-57
2023/10/14 08:57:14;;;;;;;11.87;3.93;;;;;;;;;;5073349;28;20032;-57
2023/10/14 08:59:41;;;;;;;10.27;2.70;;;;;;;;;;5073252;28;20980;-57
2023/10/14 09:02:07;;;;;;;10.00;3.65;;;;;;;;;;5071428;28;20519;-57
2023/10/14 09:04:35;;;;;;;10.50;4.55;;;;;;;;;;5072727;28;20017;-57
2023/10/14 09:07:03;;;;;;;15.98;3.13;;;;;;;;;;5071284;28;20144;-57
2023/10/14 09:09:28;;;;;;;13.43;3.25;;;;;;;;;;5073359;28;20047;-57
2023/10/14 09:11:53;;;;;;;11.65;5.00;;;;;;;;;;5070929;28;20491;-61
2023/10/14 09:14:18;;;;;;;11.60;3.55;;;;;;;;;;5072693;28;20016;-57
2023/10/14 09:16:48;;;;;;;8.13;3.53;;;;;;;;;;5071051;28;20051;-57
2023/10/14 09:19:15;;;;;;;16.42;3.78;;;;;;;;;;5072898;28;20047;-57
2023/10/14 09:21:49;;;;;;;21.60;4.88;;;;;;;;;;5071413;28;20029;-57
2023/10/14 09:24:18;;;;;;;13.00;3.28;;;;;;;;;;5072846;28;20013;-57
2023/10/14 09:26:44;;;;;;;10.85;3.67;;;;;;;;;;5070792;28;20037;-61
2023/10/14 09:29:09;;;;;;;16.87;3.93;;;;;;;;;;5072703;28;20023;-57
2023/10/14 09:31:38;;;;;;;9.63;3.83;;;;;;;;;;5071004;28;20467;-57
2023/10/14 09:34:03;;;;;;;14.95;2.53;;;;;;;;;;5069518;28;20560;-57
2023/10/14 09:36:33;;;;;;;11.95;3.75;;;;;;;;;;5069593;28;20119;-57
2023/10/14 09:39:00;;;;;;;16.02;3.00;;;;;;;;;;5072408;28;20015;-57
2023/10/14 09:41:26;;;;;;;10.82;4.20;;;;;;;;;;5070665;28;20396;-57
2023/10/14 09:43:51;;;;;;;9.95;3.50;;;;;;;;;;5070144;28;20025;-57
2023/10/14 09:46:19;;;;;;;13.73;3.50;;;;;;;;;;5070892;28;20033;-57
2023/10/14 09:48:45;;;;;;;16.98;4.53;;;;;;;;;;5071887;28;20388;-57
2023/10/14 09:51:12;;;;;;;10.57;3.63;;;;;;;;;;5069865;28;20068;-57
2023/10/14 09:53:37;;;;;;;9.02;4.65;;;;;;;;;;5072348;28;20051;-57
2023/10/14 09:56:07;;;;;;;19.02;5.97;;;;;;;;;;5069348;28;20543;-57
2023/10/14 09:58:34;;;;;;;15.07;3.17;;;;;;;;;;5072484;28;20062;-57
2023/10/14 10:01:00;;;;;;;16.08;5.40;;;;;;;;;;5070833;28;20040;-57
2023/10/14 10:03:27;;;;;;;12.23;2.95;;;;;;;;;;5070812;28;20069;-57
2023/10/14 10:06:00;;;;;;;11.55;3.85;;;;;;;;;;5070262;28;20037;-57
2023/10/14 10:08:44;;;;;;;11.52;3.83;;;;;;;;;;5072306;28;20511;-56
2023/10/14 10:11:10;;;;;;;14.30;5.25;;;;;;;;;;5069877;28;20036;-57
2023/10/14 10:13:36;;;;;;;12.60;3.75;;;;;;;;;;5072644;28;20336;-57
2023/10/14 10:16:05;;;;;;;12.38;4.03;;;;;;;;;;5070366;28;20041;-57
2023/10/14 10:18:50;;;;;;;13.63;2.65;;;;;;;;;;5071679;28;20028;-57
2023/10/14 10:21:16;;;;;;;12.20;4.63;;;;;;;;;;5070564;28;20128;-71
2023/10/14 10:23:42;;;;;;;10.55;3.35;;;;;;;;;;5072141;28;20020;-57
2023/10/14 10:26:08;;;;;;;24.13;6.10;;;;;;;;;;5070045;28;20102;-57
2023/10/14 10:28:37;;;;;;;10.02;2.90;;;;;;;;;;5072098;28;20028;-57
2023/10/14 10:31:09;;;;;;;11.75;3.42;;;;;;;;;;5070195;28;20511;-57
2023/10/14 10:33:49;;;;;;;13.68;3.88;;;;;;;;;;5071411;28;20024;-57
2023/10/14 10:36:19;;;;;;;13.35;4.53;;;;;;;;;;5070143;28;20035;-57
2023/10/14 10:38:44;;;;;;;9.82;3.47;;;;;;;;;;5071807;28;20055;-57
2023/10/14 10:41:23;;;;;;;13.75;3.55;;;;;;;;;;5066606;28;20052;-57
2023/10/14 10:43:49;;;;;;;11.70;3.88;;;;;;;;;;5070941;28;20470;-57
2023/10/14 10:46:34;;;;;;;7.95;3.47;;;;;;;;;;5070269;28;20042;-57
2023/10/14 10:48:59;;;;;;;9.02;3.38;;;;;;;;;;5070478;28;20028;-57
2023/10/14 10:51:29;;;;;;;10.83;3.70;;;;;;;;;;5069065;28;20036;-57
2023/10/14 10:53:55;;;;;;;16.42;5.40;;;;;;;;;;5070813;28;20459;-57
2023/10/14 10:56:20;;;;;;;10.95;4.20;;;;;;;;;;5069413;28;20037;-57
2023/10/14 10:58:45;;;;;;;12.43;3.42;;;;;;;;;;5071269;28;20023;-57
2023/10/14 11:01:12;;;;;;;10.87;4.90;;;;;;;;;;5069871;28;20059;-57
2023/10/14 11:03:37;;;;;;;6.38;3.40;;;;;;;;;;5070545;28;20418;-57
2023/10/14 11:06:04;;;;;;;10.90;4.35;;;;;;;;;;5069357;28;20112;-57
2023/10/14 11:08:29;;;;;;;8.55;2.75;;;;;;;;;;5071520;28;20062;-56
2023/10/14 11:10:56;;;;;;;16.00;5.03;;;;;;;;;;5069149;28;20033;-57
2023/10/14 11:13:22;;;;;;;11.73;3.17;;;;;;;;;;5071097;28;20028;-57
2023/10/14 11:15:50;;;;;;;5.55;2.05;;;;;;;;;;5069015;28;20036;-64
2023/10/14 11:18:15;;;;;;;6.68;2.45;;;;;;;;;;5070130;28;20468;-57
2023/10/14 11:20:41;;;;;;;5.53;3.03;;;;;;;;;;5069617;28;20042;-56
2023/10/14 11:23:08;;;;;;;7.85;2.63;;;;;;;;;;5070665;28;20028;-56
2023/10/14 11:25:36;;;;;;;7.93;2.75;;;;;;;;;;5069117;28;20041;-57
2023/10/14 11:28:05;;;;;;;6.65;3.92;;;;;;;;;;5070723;28;20032;-57
2023/10/14 11:30:31;;;;;;;12.80;3.80;;;;;;;;;;5068341;28;20492;-57
2023/10/14 11:32:58;;;;;;;17.48;3.58;;;;;;;;;;5070709;28;20012;-56
2023/10/14 11:35:25;;;;;;;10.87;3.50;;;;;;;;;;5069124;28;20040;-56
2023/10/14 11:37:55;;;;;;;14.07;3.58;;;;;;;;;;5070737;28;20455;-57
2023/10/14 11:40:25;;;;;;;10.48;3.17;;;;;;;;;;5069231;28;20035;-56
2023/10/14 11:42:52;;;;;;;8.05;2.42;;;;;;;;;;5070520;28;20017;-56
2023/10/14 11:45:17;;;;;;;9.68;3.28;;;;;;;;;;5069386;28;20487;-56
2023/10/14 11:47:44;;;;;;;21.67;7.23;;;;;;;;;;5070013;28;20025;-56
2023/10/14 11:50:12;;;;;;;10.40;3.45;;;;;;;;;;5069128;28;20496;-57
2023/10/14 11:52:44;;;;;;;15.38;3.30;;;;;;;;;;5070730;28;20059;-56
2023/10/14 11:55:16;;;;;;;13.52;4.93;;;;;;;;;;5068772;28;20036;-57
2023/10/14 11:57:43;;;;;;;13.13;2.85;;;;;;;;;;5070626;28;20052;-56
2023/10/14 12:00:10;;;;;;;17.27;3.75;;;;;;;;;;5069295;28;20032;-56
2023/10/14 12:02:35;;;;;;;4.82;2.47;;;;;;;;;;5070253;28;20081;-56
2023/10/14 12:05:03;;;;;;;9.35;4.28;;;;;;;;;;5068978;28;20051;-56
2023/10/14 12:07:30;;;;;;;8.03;2.43;;;;;;;;;;5070964;28;20054;-56
2023/10/14 12:09:59;;;;;;;5.75;4.07;;;;;;;;;;5068647;28;20104;-57
2023/10/14 12:12:24;;;;;;;10.02;4.53;;;;;;;;;;5070252;28;20467;-56
2023/10/14 12:14:49;;;;;;;10.85;4.65;;;;;;;;;;5068824;28;20028;-56
2023/10/14 12:17:15;;;;;;;10.25;3.95;;;;;;;;;;5070013;28;20024;-56
2023/10/14 12:19:40;;;;;;;5.63;2.42;;;;;;;;;;5068915;28;20491;-52
2023/10/14 12:22:06;;;;;;;7.07;3.28;;;;;;;;;;5070109;28;20013;-56
2023/10/14 12:24:32;;;;;;;14.37;4.13;;;;;;;;;;5070003;28;20059;-56
2023/10/14 12:26:57;;;;;;;8.88;4.13;;;;;;;;;;5068577;28;20814;-57
2023/10/14 12:29:22;;;;;;;14.93;4.15;;;;;;;;;;5070945;28;20028;-57
2023/10/14 12:31:47;;;;;;;10.95;2.78;;;;;;;;;;5071872;28;20060;-56
2023/10/14 12:34:14;;;;;;;10.65;4.38;;;;;;;;;;5065992;28;20048;-57
2023/10/14 12:36:42;;;;;;;9.10;3.33;;;;;;;;;;5072430;28;20538;-56
2023/10/14 12:39:26;;;;;;;;;;;;;;;;;;5074059;28;20035;-57
2023/10/14 12:41:53;;;;;;;11.48;4.03;;;;;;;;;;5072329;28;19909;-56
2023/10/14 12:44:18;;;;;;;7.20;3.95;;;;;;;;;;5073967;28;20012;-57
2023/10/14 12:46:45;;;;;;;10.88;2.55;;;;;;;;;;5071821;28;20566;-57
2023/10/14 12:49:10;;;;;;;14.85;4.30;;;;;;;;;;5073892;28;20025;-57
2023/10/14 12:51:42;;;;;;;8.00;2.85;;;;;;;;;;5072528;28;20043;-56
2023/10/14 12:54:09;;;;;;;16.55;3.80;;;;;;;;;;5073292;28;20078;-56
2023/10/14 12:56:38;;;;;;;17.10;4.68;;;;;;;;;;5070982;28;20037;-56
2023/10/14 12:59:12;;;;;;;6.03;3.08;;;;;;;;;;5073521;28;20020;-57
2023/10/14 13:01:38;;;;;;;10.77;2.65;;;;;;;;;;5071529;28;20376;-57
2023/10/14 13:04:04;;;;;;;14.98;3.15;;;;;;;;;;5073629;28;20150;-57
2023/10/14 13:06:30;;;;;;;8.43;1.85;;;;;;;;;;5072191;28;20056;-57
2023/10/14 13:08:59;;;;;;;8.65;3.15;;;;;;;;;;5072707;28;20472;-57
2023/10/14 13:11:24;;;;;;;7.97;2.42;;;;;;;;;;5071806;28;20046;-56
2023/10/14 13:13:52;;;;;;;6.78;2.17;;;;;;;;;;5073197;28;20382;-57
2023/10/14 13:16:18;;;;;;;22.52;5.35;;;;;;;;;;5071486;28;20039;-57
2023/10/14 13:18:45;;;;;;;6.15;2.65;;;;;;;;;;5073254;28;20468;-57
2023/10/14 13:21:14;;;;;;;4.85;2.50;;;;;;;;;;5072158;28;20032;-56
2023/10/14 13:23:40;;;;;;;6.28;2.47;;;;;;;;;;5073078;28;20021;-57
2023/10/14 13:26:07;;;;;;;7.75;3.05;;;;;;;;;;5071518;28;20040;-57
2023/10/14 13:28:34;;;;;;;7.63;3.05;;;;;;;;;;5073502;28;20031;-57
2023/10/14 13:31:00;;;;;;;6.17;2.57;;;;;;;;;;5070905;28;20044;-57
2023/10/14 13:33:25;;;;;;;4.27;2.60;;;;;;;;;;5073147;28;20016;-57
2023/10/14 13:35:50;;;;;;;8.93;2.20;;;;;;;;;;5071225;28;20563;-57
2023/10/14 13:38:15;;;;;;;11.03;2.97;;;;;;;;;;5072683;28;20012;-56
2023/10/14 13:40:40;;;;;;;4.77;2.70;;;;;;;;;;5071231;28;21005;-57
2023/10/14 13:43:06;;;;;;;8.38;4.30;;;;;;;;;;5071764;28;20070;-57
2023/10/14 13:45:31;;;;;;;6.35;3.33;;;;;;;;;;5071147;28;20075;-57
2023/10/14 13:48:05;;;;;;;2.85;1.65;;;;;;;;;;5071476;28;20498;-56
2023/10/14 13:50:31;;;;;;;3.90;1.60;;;;;;;;;;5071626;28;20070;-56
2023/10/14 13:52:56;;;;;;;3.70;1.70;;;;;;;;;;5072157;28;20059;-56
2023/10/14 13:55:21;;;;;;;7.27;1.70;;;;;;;;;;5071293;28;20145;-56
2023/10/14 13:57:47;;;;;;;4.57;1.70;;;;;;;;;;5072340;28;20017;-57
2023/10/14 14:00:19;;;;;;;5.43;2.72;;;;;;;;;;5070563;28;20029;-56
2023/10/14 14:02:46;;;;;;;7.18;1.42;;;;;;;;;;5072485;28;20032;-56
2023/10/14 14:05:12;;;;;;;7.00;1.70;;;;;;;;;;5070957;28;20060;-56
2023/10/14 14:07:37;;;;;;;2.88;1.80;;;;;;;;;;5072415;28;20074;-56
2023/10/14 14:10:05;;;;;;;4.38;1.58;;;;;;;;;;5070899;28;20066;-56
2023/10/14 14:12:31;;;;;;;4.32;2.05;;;;;;;;;;5072609;28;20017;-56
2023/10/14 14:14:56;;;;;;;2.15;1.50;;;;;;;;;;5070014;28;20073;-56
2023/10/14 14:17:25;;;;;;;2.23;1.80;;;;;;;;;;5072644;28;20028;-56
2023/10/14 14:19:50;;;;;;;3.72;2.17;;;;;;;;;;5070535;28;20548;-56
2023/10/14 14:22:15;;;;;;;2.47;1.60;;;;;;;;;;5071721;28;20016;-56
2023/10/14 14:24:42;;;;;;;2.65;1.70;;;;;;;;;;5072125;28;20391;-56
2023/10/14 14:27:07;;;;;;;4.45;1.92;;;;;;;;;;5070487;28;20526;-56
2023/10/14 14:29:32;;;;;;;7.63;3.20;;;;;;;;;;5071471;28;20017;-56
2023/10/14 14:31:58;;;;;;;4.07;1.80;;;;;;;;;;5050304;28;20439;-56
2023/10/14 14:34:25;;;;;;;5.10;2.30;;;;;;;;;;5051243;28;20123;-56
2023/10/14 14:36:50;;;;;;;8.48;3.85;;;;;;;;;;5060164;28;20463;-56
2023/10/14 14:39:15;;;;;;;12.25;4.38;;;;;;;;;;5068742;28;20027;-56
2023/10/14 14:41:43;;;;;;;9.10;4.00;;;;;;;;;;5064393;28;20036;-56
2023/10/14 14:44:08;;;;;;;4.22;2.95;;;;;;;;;;5069771;28;20022;-56
2023/10/14 14:46:35;;;;;;;8.20;4.40;;;;;;;;;;5067345;28;20127;-56
2023/10/14 14:49:00;;;;;;;7.03;3.45;;;;;;;;;;5068968;28;20074;-56
2023/10/14 14:51:27;;;;;;;7.17;2.33;;;;;;;;;;5066964;28;20547;-56
2023/10/14 14:53:55;;;;;;;4.32;2.20;;;;;;;;;;5068207;28;20455;-56
2023/10/14 14:56:20;;;;;;;4.88;2.40;;;;;;;;;;5068517;28;20102;-56